Time;durP1;ratioP1;P1;durP2;ratioP2;P2;SDS_P1;SDS_P2;PMS_P1;PMS_P2;Temp;Humidity;BMP_temperature;BMP_pressure;BME280_temperature;BME280_humidity;BME280_pressure;Samples;Min_cycle;Max_cycle;Signal;HPM_P1;HPM_P2
2024/01/21 00:00:15;;;;;;;7.15;3.42;;;;;;;-1.24;79.32;102175.03;5943169;28;20051;-74
2024/01/21 00:03:12;;;;;;;6.20;2.88;;;;;;;-1.26;78.45;102171.59;5948836;28;20538;-74
2024/01/21 00:06:14;;;;;;;7.68;2.20;;;;;;;-1.35;77.38;102156.19;5966820;28;20075;-75
2024/01/21 00:09:28;;;;;;;5.40;2.03;;;;;;;-1.22;78.77;102172.38;5989861;28;20486;-76
2024/01/21 00:12:24;;;;;;;8.15;2.35;;;;;;;-1.25;79.26;102162.91;5965750;28;20512;-74
2024/01/21 00:15:19;;;;;;;7.70;2.90;;;;;;;-1.21;78.39;102180.16;5979229;28;20117;-74
2024/01/21 00:18:15;;;;;;;6.63;2.03;;;;;;;-1.23;78.62;102183.69;5978023;28;20295;-74
2024/01/21 00:21:10;;;;;;;7.40;2.38;;;;;;;-1.22;77.28;102175.84;5977519;28;20306;-75
2024/01/21 00:24:06;;;;;;;6.13;2.40;;;;;;;-1.22;76.85;102172.38;5968225;28;20034;-74
2024/01/21 00:27:01;;;;;;;8.23;2.60;;;;;;;-1.25;76.79;102168.09;5957506;28;20394;-75
2024/01/21 00:29:57;;;;;;;8.07;2.20;;;;;;;-1.28;77.30;102157.75;5977747;28;20031;-75
2024/01/21 00:33:07;;;;;;;6.87;2.33;;;;;;;-1.36;77.88;102158.84;5977262;28;20060;-75
2024/01/21 00:36:02;;;;;;;6.35;2.03;;;;;;;-1.28;77.57;102162.97;5976077;28;20363;-75
2024/01/21 00:39:06;;;;;;;6.43;2.25;;;;;;;-1.25;77.65;102162.91;5973740;28;20114;-74
2024/01/21 00:42:02;;;;;;;5.40;2.17;;;;;;;-1.33;79.00;102157.00;5977381;28;20078;-75
2024/01/21 00:44:58;;;;;;;6.05;2.80;;;;;;;-1.37;79.27;102146.72;5970902;28;20086;-75
2024/01/21 00:47:54;;;;;;;7.18;2.25;;;;;;;-1.45;79.68;102146.91;5974433;28;20035;-74
2024/01/21 00:50:49;;;;;;;7.10;2.45;;;;;;;-1.53;80.97;102142.75;5973450;28;20387;-75
2024/01/21 00:53:45;;;;;;;6.47;2.50;;;;;;;-1.47;80.44;102137.44;5973421;28;20043;-74
2024/01/21 00:56:40;;;;;;;6.75;2.13;;;;;;;-1.43;80.18;102137.31;5975091;28;20027;-75
2024/01/21 00:59:35;;;;;;;7.47;2.67;;;;;;;-1.39;79.28;102138.09;5976308;28;20030;-74
2024/01/21 01:02:30;;;;;;;8.03;3.17;;;;;;;-1.24;76.77;102116.91;5973951;28;20029;-74
2024/01/21 01:05:26;;;;;;;5.80;2.10;;;;;;;-1.09;73.13;102107.91;5975686;28;20066;-74
2024/01/21 01:08:21;;;;;;;6.00;2.20;;;;;;;-0.93;69.63;102122.25;5974899;28;20456;-75
2024/01/21 01:11:20;;;;;;;7.37;2.20;;;;;;;-0.83;68.11;102116.75;5973359;28;20077;-75
2024/01/21 01:14:16;;;;;;;5.70;1.85;;;;;;;-0.86;66.98;102102.94;5977954;28;20088;-75
2024/01/21 01:21:14;;;;;;;6.13;1.90;;;;;;;-0.77;64.34;102100.97;5919523;29;20043;-73
2024/01/21 01:24:10;;;;;;;2.70;1.00;;;;;;;-0.76;64.31;102105.28;5974022;28;20028;-74
2024/01/21 01:30:55;;;;;;;5.55;1.48;;;;;;;-0.95;62.41;102082.38;5935362;28;20066;-76
2024/01/21 01:33:51;;;;;;;4.03;1.70;;;;;;;-0.83;62.63;102093.31;5976441;28;20463;-75
2024/01/21 01:37:22;;;;;;;3.67;1.42;;;;;;;-0.88;63.04;102095.19;5969199;28;20031;-75
2024/01/21 01:40:20;;;;;;;2.33;0.88;;;;;;;-0.81;60.72;102077.66;5939839;28;20053;-75
2024/01/21 01:43:15;;;;;;;3.28;1.30;;;;;;;-0.70;60.52;102063.47;5971376;28;20039;-75
2024/01/21 01:46:10;;;;;;;3.80;1.57;;;;;;;-0.62;59.97;102065.84;5967976;28;20476;-75
2024/01/21 01:49:06;;;;;;;2.55;1.20;;;;;;;-0.60;59.70;102074.50;5975436;28;20045;-74
2024/01/21 01:52:02;;;;;;;2.53;1.17;;;;;;;-0.62;58.84;102068.44;5960836;28;20415;-74
2024/01/21 01:55:00;;;;;;;2.08;0.98;;;;;;;-0.69;59.38;102079.94;5975881;28;20042;-75
2024/01/21 01:57:56;;;;;;;2.47;1.00;;;;;;;-0.57;58.40;102063.97;5978961;28;20027;-74
2024/01/21 02:00:52;;;;;;;3.10;0.95;;;;;;;-0.62;57.84;102064.09;5980696;28;20035;-76
2024/01/21 02:03:47;;;;;;;4.82;1.23;;;;;;;-0.85;58.83;102058.69;5978785;28;20047;-76
2024/01/21 02:10:34;;;;;;;3.65;1.30;;;;;;;-0.90;58.80;102057.94;5971570;28;20031;-74
2024/01/21 02:13:30;;;;;;;2.30;1.20;;;;;;;-1.07;58.42;102031.50;5980562;28;20467;-74
2024/01/21 02:16:25;;;;;;;1.33;0.82;;;;;;;-0.98;57.62;102020.00;5977032;28;20303;-73
2024/01/21 02:19:26;;;;;;;3.95;1.50;;;;;;;-0.78;57.09;102048.94;5975450;28;20063;-73
2024/01/21 02:22:23;;;;;;;3.28;1.30;;;;;;;-0.93;57.76;102044.16;5979532;28;20067;-75
2024/01/21 02:25:19;;;;;;;2.83;1.27;;;;;;;-0.94;58.29;102048.50;5975786;28;20031;-73
2024/01/21 02:28:14;;;;;;;3.63;1.20;;;;;;;-0.81;57.42;102051.63;5974869;28;20085;-76
2024/01/21 02:31:09;;;;;;;3.07;1.23;;;;;;;-0.77;58.01;102056.72;5973343;28;20183;-75
2024/01/21 02:34:05;;;;;;;2.63;1.07;;;;;;;-0.89;58.17;102041.41;5978131;28;20043;-76
2024/01/21 02:37:09;;;;;;;3.17;1.10;;;;;;;-1.03;58.55;102021.88;5978915;28;20031;-75
2024/01/21 02:40:05;;;;;;;5.28;1.10;;;;;;;-0.98;57.61;102036.44;5976539;28;20031;-75
2024/01/21 02:43:00;;;;;;;3.20;1.27;;;;;;;-1.05;57.85;102028.84;5978226;28;20517;-74
2024/01/21 02:45:55;;;;;;;2.23;1.27;;;;;;;-1.08;58.11;102023.72;5976657;28;20039;-75
2024/01/21 02:48:51;;;;;;;2.20;1.27;;;;;;;-0.92;57.42;102020.66;5977299;28;20098;-75
2024/01/21 02:51:46;;;;;;;3.20;1.20;;;;;;;-0.97;57.30;102019.94;5975806;28;20110;-74
2024/01/21 02:54:41;;;;;;;3.23;1.20;;;;;;;-1.01;57.36;102026.13;5976993;28;20034;-74
2024/01/21 02:57:37;;;;;;;2.90;1.37;;;;;;;-1.04;57.12;102030.56;5970225;28;20299;-74
2024/01/21 03:00:32;;;;;;;6.78;1.75;;;;;;;-0.94;56.89;102026.81;5956711;28;20058;-74
2024/01/21 03:03:28;;;;;;;4.70;1.65;;;;;;;-0.89;56.12;102017.97;5977432;28;20035;-75
2024/01/21 03:10:32;;;;;;;3.35;1.25;;;;;;;-1.00;57.37;101995.72;5976325;28;20027;-76
2024/01/21 03:13:28;;;;;;;4.37;1.40;;;;;;;-0.98;56.50;101999.16;5975974;28;20658;-75
2024/01/21 03:16:24;;;;;;;2.73;1.27;;;;;;;-1.04;56.77;102001.94;5974268;28;20419;-74
2024/01/21 03:23:10;;;;;;;3.35;1.40;;;;;;;-1.23;57.29;101999.81;5976715;28;20386;-76
2024/01/21 03:26:06;;;;;;;2.57;1.13;;;;;;;-1.04;57.81;102021.00;5974783;28;20023;-75
2024/01/21 03:29:01;;;;;;;3.13;1.00;;;;;;;-1.04;57.83;102010.59;5962140;28;20047;-75
2024/01/21 03:31:57;;;;;;;5.55;2.22;;;;;;;-1.13;58.25;101994.34;5977163;28;20031;-74
2024/01/21 03:34:52;;;;;;;3.30;1.02;;;;;;;-1.08;58.31;101998.53;5975193;28;20035;-75
2024/01/21 03:38:36;;;;;;;4.72;1.52;;;;;;;-1.31;57.43;101969.69;5974012;28;20098;-75
2024/01/21 03:41:31;;;;;;;3.80;1.50;;;;;;;-1.17;58.16;101983.19;5962738;28;20407;-75
2024/01/21 03:44:26;;;;;;;5.03;1.83;;;;;;;-1.06;58.14;101977.69;5975235;28;20051;-76
2024/01/21 03:47:28;;;;;;;4.03;1.43;;;;;;;-1.13;57.86;101973.53;5977055;28;20050;-75
2024/01/21 03:50:23;;;;;;;2.63;1.50;;;;;;;-1.18;58.20;101957.19;5974997;28;20373;-73
2024/01/21 03:53:18;;;;;;;4.33;1.37;;;;;;;-1.26;58.41;101955.66;5974724;28;20043;-74
2024/01/21 03:56:18;;;;;;;5.00;1.93;;;;;;;-1.28;58.41;101949.63;5974708;28;20102;-74
2024/01/21 03:59:13;;;;;;;4.95;1.92;;;;;;;-1.18;58.60;101939.00;5970105;28;20019;-74
2024/01/21 04:02:59;;;;;;;4.38;1.70;;;;;;;-1.21;59.05;101951.19;5976442;28;20030;-74
2024/01/21 04:05:55;;;;;;;5.60;1.70;;;;;;;-1.20;58.09;101952.88;5969501;28;20050;-75
2024/01/21 04:09:28;;;;;;;5.70;1.63;;;;;;;-1.16;58.58;101932.84;5973172;28;20528;-75
2024/01/21 04:12:24;;;;;;;4.45;1.98;;;;;;;-1.07;57.51;101913.53;5957555;29;20066;-76
2024/01/21 04:15:19;;;;;;;6.10;2.30;;;;;;;-0.91;57.14;101922.59;5976408;28;20035;-75
2024/01/21 04:18:14;;;;;;;4.67;1.83;;;;;;;-0.69;57.15;101934.13;5973690;28;20023;-75
2024/01/21 04:21:10;;;;;;;5.90;2.27;;;;;;;-0.69;56.23;101918.50;5976038;28;20050;-74
2024/01/21 04:24:05;;;;;;;3.27;1.63;;;;;;;-0.67;56.31;101906.28;5974624;28;20046;-75
2024/01/21 04:27:00;;;;;;;6.87;2.57;;;;;;;-0.48;55.39;101896.16;5972651;28;20039;-74
2024/01/21 04:29:55;;;;;;;5.87;3.10;;;;;;;-0.36;54.80;101880.16;5969107;28;20090;-75
2024/01/21 04:33:52;;;;;;;6.47;2.50;;;;;;;-0.48;54.96;101860.53;5969126;28;20030;-76
2024/01/21 04:36:49;;;;;;;7.63;2.60;;;;;;;-0.47;54.55;101854.44;5846883;29;20042;-76
2024/01/21 04:39:45;;;;;;;8.35;2.88;;;;;;;-0.31;55.16;101884.31;5937869;28;20054;-75
2024/01/21 04:43:04;;;;;;;10.80;3.80;;;;;;;-0.26;54.54;101851.13;5975189;28;20510;-74
2024/01/21 04:46:03;;;;;;;12.25;3.42;;;;;;;-0.31;54.11;101845.22;5953547;28;20039;-76
2024/01/21 04:48:58;;;;;;;7.38;3.15;;;;;;;-0.25;54.07;101847.66;5968665;28;20063;-75
2024/01/21 04:52:34;;;;;;;;;;;;;;;;;;;;;
2024/01/21 04:55:30;;;;;;;6.43;2.03;;;;;;;-0.31;54.40;101821.78;5956202;28;20130;-75
2024/01/21 04:58:56;;;;;;;7.03;2.60;;;;;;;-0.29;53.39;101806.94;5972835;28;20443;-75
2024/01/21 05:01:51;;;;;;;5.15;2.15;;;;;;;-0.10;52.84;101839.31;5959379;28;20047;-76
2024/01/21 05:04:46;;;;;;;9.15;2.95;;;;;;;-0.22;53.22;101831.88;5973110;28;20066;-76
2024/01/21 05:07:42;;;;;;;4.23;1.47;;;;;;;-0.13;52.48;101828.97;5970290;28;20407;-75
2024/01/21 05:10:37;;;;;;;6.10;2.07;;;;;;;0.02;52.40;101845.03;5974526;28;20118;-78
2024/01/21 05:13:32;;;;;;;6.25;1.95;;;;;;;0.14;50.85;101840.22;5952443;28;20284;-76
2024/01/21 05:16:28;;;;;;;3.13;1.13;;;;;;;0.10;50.78;101824.75;5976239;28;20046;-76
2024/01/21 05:19:23;;;;;;;6.40;1.50;;;;;;;0.14;50.38;101836.75;5969277;28;20267;-77
2024/01/21 05:23:00;;;;;;;;;;;;;;;;;;;;;
2024/01/21 05:25:56;;;;;;;4.78;1.35;;;;;;;0.23;49.39;101824.28;5925415;28;20131;-73
2024/01/21 05:28:53;;;;;;;3.53;1.70;;;;;;;0.35;49.62;101839.53;5956595;28;20032;-78
2024/01/21 05:31:48;;;;;;;5.43;1.92;;;;;;;0.25;49.80;101830.28;5957796;28;20042;-77
2024/01/21 05:35:11;;;;;;;5.97;2.00;;;;;;;0.30;49.73;101822.31;5972571;28;20083;-77
2024/01/21 05:49:40;;;;;;;12.02;3.72;;;;;;;0.14;49.48;101771.59;5951857;29;20534;-76
2024/01/21 06:00:41;;;;;;;4.57;1.83;;;;;;;0.49;48.21;101784.25;5955505;29;20079;-77
2024/01/21 06:08:06;;;;;;;3.97;1.50;;;;;;;0.53;47.41;101764.94;5871089;29;20513;-76
2024/01/21 06:11:07;;;;;;;5.20;2.08;;;;;;;0.51;47.38;101753.72;5909404;29;20048;-76
2024/01/21 06:14:02;;;;;;;2.55;1.33;;;;;;;0.48;47.55;101740.78;5954464;29;20048;-76
2024/01/21 06:16:57;;;;;;;6.73;1.80;;;;;;;0.55;46.33;101721.38;5957966;29;20127;-78
2024/01/21 06:20:22;;;;;;;5.43;1.98;;;;;;;0.49;46.90;101705.97;5969892;28;20361;-79
2024/01/21 06:23:23;;;;;;;3.15;1.60;;;;;;;0.60;47.13;101748.13;5956634;28;20079;-77
2024/01/21 06:26:24;;;;;;;7.88;2.17;;;;;;;0.64;46.63;101726.25;5974937;28;20031;-79
2024/01/21 06:29:20;;;;;;;5.30;2.42;;;;;;;0.58;46.15;101721.25;5973193;28;20030;-76
2024/01/21 06:32:15;;;;;;;6.27;2.30;;;;;;;0.72;47.22;101745.09;5975880;28;20028;-77
2024/01/21 06:35:10;;;;;;;11.37;3.77;;;;;;;0.72;47.61;101749.44;5977278;28;20274;-79
2024/01/21 06:38:22;;;;;;;11.60;3.50;;;;;;;0.76;47.15;101741.44;5977126;28;20031;-80
2024/01/21 06:41:17;;;;;;;6.95;2.47;;;;;;;0.76;47.03;101738.81;5956345;29;20031;-78
2024/01/21 06:44:13;;;;;;;11.02;2.60;;;;;;;0.78;46.68;101718.75;5972840;28;20039;-79
2024/01/21 06:47:08;;;;;;;7.72;2.47;;;;;;;0.78;45.59;101713.53;5971414;28;20035;-76
2024/01/21 06:50:04;;;;;;;7.80;2.57;;;;;;;0.73;45.91;101694.59;5984823;28;20039;-77
2024/01/21 06:52:59;;;;;;;7.57;2.97;;;;;;;0.81;45.94;101700.38;5981036;28;20294;-80
2024/01/21 06:55:55;;;;;;;6.97;2.30;;;;;;;0.86;45.34;101689.72;5978099;28;20027;-76
2024/01/21 06:58:50;;;;;;;6.70;2.10;;;;;;;1.06;43.69;101690.63;5988579;28;20028;-78
2024/01/21 07:01:45;;;;;;;5.00;2.43;;;;;;;1.20;44.36;101693.53;5984063;28;20460;-77
2024/01/21 07:04:41;;;;;;;6.20;2.33;;;;;;;1.40;42.36;101650.06;5973721;28;20031;-76
2024/01/21 07:07:36;;;;;;;3.80;1.53;;;;;;;1.34;42.51;101651.16;5988565;28;20333;-75
2024/01/21 07:10:31;;;;;;;5.83;1.90;;;;;;;1.42;41.49;101671.75;5984511;28;20158;-75
2024/01/21 07:13:27;;;;;;;4.20;1.83;;;;;;;1.45;42.09;101637.66;5985300;28;20049;-74
2024/01/21 07:16:22;;;;;;;3.67;1.23;;;;;;;1.58;41.46;101644.03;5973578;28;20448;-74
2024/01/21 07:19:17;;;;;;;5.43;1.83;;;;;;;1.55;41.43;101646.81;5986548;28;20039;-73
2024/01/21 07:22:13;;;;;;;2.80;1.10;;;;;;;1.67;40.60;101641.91;5984400;28;20031;-74
2024/01/21 07:25:08;;;;;;;4.97;1.70;;;;;;;1.65;40.56;101624.59;5973974;28;20113;-74
2024/01/21 07:28:04;;;;;;;4.82;1.30;;;;;;;1.61;41.45;101638.69;5961432;28;20073;-74
2024/01/21 07:30:59;;;;;;;5.35;1.65;;;;;;;1.50;41.76;101636.53;5986070;28;20106;-74
2024/01/21 07:33:54;;;;;;;4.93;1.50;;;;;;;1.53;40.78;101635.56;5976889;28;20070;-73
2024/01/21 07:36:50;;;;;;;3.43;1.53;;;;;;;1.48;41.21;101637.53;5974255;28;20035;-73
2024/01/21 07:39:45;;;;;;;4.47;1.50;;;;;;;1.58;40.76;101650.13;5996551;28;20113;-74
2024/01/21 07:42:40;;;;;;;3.42;1.80;;;;;;;1.61;41.29;101643.91;5983809;28;20050;-73
2024/01/21 07:45:36;;;;;;;3.37;1.33;;;;;;;1.62;40.60;101627.31;5975830;28;20127;-73
2024/01/21 07:48:31;;;;;;;5.30;1.90;;;;;;;1.57;41.28;101611.00;5972982;28;20398;-73
2024/01/21 07:51:27;;;;;;;5.97;1.60;;;;;;;1.75;40.45;101637.19;5985722;28;20250;-73
2024/01/21 07:54:22;;;;;;;3.20;1.30;;;;;;;1.84;40.16;101620.25;5988908;28;20114;-72
2024/01/21 07:57:17;;;;;;;4.13;1.90;;;;;;;1.88;40.50;101634.84;5987684;28;20129;-73
2024/01/21 08:00:14;;;;;;;3.43;1.30;;;;;;;1.86;39.36;101545.19;5991213;28;20031;-73
2024/01/21 08:03:10;;;;;;;4.20;1.85;;;;;;;1.92;39.91;101605.06;5977732;28;20035;-73
2024/01/21 08:06:07;;;;;;;3.78;1.60;;;;;;;1.92;40.05;101602.44;5980383;28;20042;-73
2024/01/21 08:09:03;;;;;;;3.03;1.27;;;;;;;1.84;40.02;101599.31;5976691;28;20027;-73
2024/01/21 08:11:58;;;;;;;4.75;1.75;;;;;;;1.96;39.85;101597.94;5984148;28;20066;-71
2024/01/21 08:14:54;;;;;;;5.40;1.37;;;;;;;1.98;40.31;101601.31;5997080;28;20027;-73
2024/01/21 08:17:49;;;;;;;6.13;1.50;;;;;;;1.97;40.05;101590.00;5978042;28;20729;-72
2024/01/21 08:20:45;;;;;;;3.10;1.43;;;;;;;1.99;40.51;101592.53;5981851;28;20034;-73
2024/01/21 08:23:41;;;;;;;2.97;1.35;;;;;;;2.08;39.52;101589.50;5982496;28;20034;-72
2024/01/21 08:26:37;;;;;;;4.25;1.63;;;;;;;2.02;40.21;101571.47;5973583;28;20027;-73
2024/01/21 08:29:33;;;;;;;6.32;1.70;;;;;;;1.96;40.33;101575.22;5967174;28;20388;-72
2024/01/21 08:32:28;;;;;;;2.55;1.60;;;;;;;2.07;40.51;101580.81;5976663;28;20476;-73
2024/01/21 08:35:24;;;;;;;4.90;1.53;;;;;;;2.00;40.22;101584.63;5976256;28;20134;-74
2024/01/21 08:38:19;;;;;;;3.42;1.35;;;;;;;2.05;40.13;101603.56;5986639;28;20037;-73
2024/01/21 08:41:14;;;;;;;2.80;1.10;;;;;;;1.97;40.61;101582.16;5979114;28;20035;-73
2024/01/21 08:44:09;;;;;;;3.93;1.37;;;;;;;1.93;40.76;101580.59;5959672;28;20383;-74
2024/01/21 08:47:05;;;;;;;2.23;1.13;;;;;;;1.87;41.75;101577.41;5965057;28;20099;-73
2024/01/21 08:50:07;;;;;;;3.70;1.48;;;;;;;1.90;41.49;101572.06;5960761;28;20030;-74
2024/01/21 08:53:03;;;;;;;3.35;1.30;;;;;;;1.96;40.95;101551.69;5958430;28;20035;-75
2024/01/21 08:56:01;;;;;;;3.17;1.60;;;;;;;1.92;41.17;101558.00;5950861;28;20415;-74
2024/01/21 08:58:56;;;;;;;3.90;1.40;;;;;;;1.92;42.66;101565.84;5976253;28;20038;-73
2024/01/21 09:01:51;;;;;;;4.10;1.63;;;;;;;1.89;41.42;101529.38;5982559;28;20035;-74
2024/01/21 09:04:53;;;;;;;3.15;1.50;;;;;;;1.93;42.22;101533.50;5966397;28;20032;-73
2024/01/21 09:07:48;;;;;;;2.35;1.20;;;;;;;1.98;41.38;101554.25;5976657;28;20035;-73
2024/01/21 09:10:44;;;;;;;3.77;1.40;;;;;;;2.05;42.53;101555.66;5967134;28;20038;-73
2024/01/21 09:13:39;;;;;;;2.70;1.07;;;;;;;2.00;41.79;101553.25;5998705;28;20031;-73
2024/01/21 09:16:34;;;;;;;3.47;1.73;;;;;;;2.04;41.41;101554.78;5989147;28;20046;-72
2024/01/21 09:19:29;;;;;;;3.17;1.23;;;;;;;2.06;41.89;101550.34;5983687;28;20059;-74
2024/01/21 09:22:25;;;;;;;3.60;1.37;;;;;;;2.05;42.37;101525.13;5986855;28;20286;-75
2024/01/21 09:25:20;;;;;;;4.43;2.03;;;;;;;2.07;41.28;101532.88;5989935;28;20081;-74
2024/01/21 09:28:15;;;;;;;2.93;1.57;;;;;;;2.14;41.44;101556.09;5989429;28;20097;-72
2024/01/21 09:31:11;;;;;;;4.43;1.90;;;;;;;2.14;40.83;101582.25;5991547;28;20379;-74
2024/01/21 09:34:06;;;;;;;3.87;1.50;;;;;;;2.16;42.17;101596.09;5988174;28;20262;-74
2024/01/21 09:37:01;;;;;;;4.50;1.33;;;;;;;2.13;41.84;101603.22;5982873;28;20050;-73
2024/01/21 09:39:57;;;;;;;4.03;1.67;;;;;;;2.11;42.66;101616.38;5987190;28;20034;-72
2024/01/21 09:42:55;;;;;;;3.40;1.70;;;;;;;2.00;42.73;101610.78;5985375;28;20038;-73
2024/01/21 09:45:50;;;;;;;1.88;1.17;;;;;;;2.04;43.40;101595.81;5963074;28;20114;-73
2024/01/21 09:48:47;;;;;;;2.80;1.63;;;;;;;1.94;43.56;101579.69;5953429;28;20395;-74
2024/01/21 09:51:42;;;;;;;4.13;1.25;;;;;;;1.91;43.40;101579.81;5982555;28;20123;-73
2024/01/21 09:54:38;;;;;;;3.28;1.23;;;;;;;1.94;44.22;101584.91;5980945;28;20392;-74
2024/01/21 09:57:35;;;;;;;2.70;1.13;;;;;;;1.95;44.66;101607.53;5977437;28;20042;-74
2024/01/21 10:00:31;;;;;;;3.08;1.40;;;;;;;1.88;44.64;101582.56;5991084;28;20031;-74
2024/01/21 10:03:26;;;;;;;4.63;1.05;;;;;;;1.93;44.80;101557.06;5971494;28;20031;-74
2024/01/21 10:06:22;;;;;;;4.13;1.70;;;;;;;1.95;44.80;101567.47;5984574;28;20031;-74
2024/01/21 10:09:21;;;;;;;3.03;1.23;;;;;;;1.91;44.58;101573.72;5981780;28;20110;-72
2024/01/21 10:12:17;;;;;;;4.68;1.90;;;;;;;1.95;44.93;101502.09;5990547;28;20278;-73
2024/01/21 10:15:14;;;;;;;2.30;1.30;;;;;;;1.98;44.57;101534.19;5986055;28;20089;-74
2024/01/21 10:18:09;;;;;;;4.13;1.55;;;;;;;2.05;44.80;101563.50;5983209;28;20034;-72
2024/01/21 10:21:05;;;;;;;3.53;1.45;;;;;;;2.14;44.62;101568.31;5988664;28;20618;-72
2024/01/21 10:24:01;;;;;;;4.63;1.50;;;;;;;2.25;44.75;101566.91;5977268;28;20038;-72
2024/01/21 10:26:56;;;;;;;3.25;1.88;;;;;;;2.29;44.06;101544.88;5980429;28;20050;-73
2024/01/21 10:29:52;;;;;;;7.63;1.90;;;;;;;2.34;44.24;101553.34;5978903;28;20050;-73
2024/01/21 10:32:47;;;;;;;3.80;1.80;;;;;;;2.26;44.84;101542.41;5979176;28;20027;-73
2024/01/21 10:35:42;;;;;;;5.13;2.03;;;;;;;2.35;44.76;101541.97;5977425;28;20082;-73
2024/01/21 10:38:48;;;;;;;4.20;1.83;;;;;;;2.37;44.43;101526.19;5980128;28;20085;-73
2024/01/21 10:41:44;;;;;;;2.85;1.40;;;;;;;2.27;45.89;101514.47;5978628;28;20027;-75
2024/01/21 10:44:39;;;;;;;9.63;2.10;;;;;;;2.29;45.70;101537.03;5976468;28;20042;-73
2024/01/21 10:47:35;;;;;;;3.95;1.70;;;;;;;2.34;45.13;101534.19;5977010;28;20035;-73
2024/01/21 10:50:30;;;;;;;3.72;1.70;;;;;;;2.29;45.78;101539.66;5969366;28;20036;-74
2024/01/21 10:53:26;;;;;;;2.83;1.43;;;;;;;2.31;45.60;101556.13;5977182;28;20031;-73
2024/01/21 10:56:25;;;;;;;3.60;1.63;;;;;;;2.26;46.16;101513.63;5974836;28;20039;-73
2024/01/21 10:59:21;;;;;;;4.90;1.65;;;;;;;2.24;46.56;101510.25;5962540;28;20402;-73
2024/01/21 11:02:16;;;;;;;4.43;1.95;;;;;;;2.27;46.56;101519.72;5979838;28;20055;-73
2024/01/21 11:05:11;;;;;;;3.90;1.77;;;;;;;2.18;46.71;101491.38;5974156;28;20035;-72
2024/01/21 11:08:08;;;;;;;5.70;1.95;;;;;;;2.28;46.86;101506.53;5974542;28;20031;-73
2024/01/21 11:11:15;;;;;;;5.82;1.90;;;;;;;2.31;46.40;101490.69;5973008;28;20027;-74
2024/01/21 11:14:33;;;;;;;3.67;1.33;;;;;;;2.33;47.22;101488.88;5978105;28;20483;-73
2024/01/21 11:17:29;;;;;;;5.20;1.90;;;;;;;2.23;47.08;101473.66;5976593;28;20031;-73
2024/01/21 11:20:24;;;;;;;3.73;2.07;;;;;;;2.35;46.59;101515.81;5977984;28;20061;-73
2024/01/21 11:23:19;;;;;;;5.00;2.10;;;;;;;2.32;47.67;101487.16;5978955;28;20053;-72
2024/01/21 11:26:21;;;;;;;3.97;2.05;;;;;;;2.22;47.64;101485.94;5962715;28;20140;-73
2024/01/21 11:29:27;;;;;;;4.88;1.90;;;;;;;2.28;48.13;101498.69;5974160;28;20030;-72
2024/01/21 11:32:27;;;;;;;3.67;1.83;;;;;;;2.20;48.75;101477.28;5982148;28;20031;-73
2024/01/21 11:35:26;;;;;;;4.75;1.85;;;;;;;2.23;48.68;101492.84;5973368;28;20039;-73
2024/01/21 11:38:23;;;;;;;4.25;2.22;;;;;;;2.35;48.51;101473.09;5971243;28;20086;-73
2024/01/21 11:41:20;;;;;;;7.03;3.13;;;;;;;2.19;48.82;101464.28;5981239;28;20041;-73
2024/01/21 11:44:26;;;;;;;7.57;2.80;;;;;;;2.17;49.54;101481.84;5979082;28;20035;-73
2024/01/21 11:47:21;;;;;;;3.78;1.98;;;;;;;2.33;49.69;101501.09;5978386;28;20038;-73
2024/01/21 11:50:17;;;;;;;2.92;1.63;;;;;;;2.36;49.93;101514.88;5981634;28;20040;-72
2024/01/21 11:53:12;;;;;;;6.93;3.25;;;;;;;2.23;50.71;101512.91;5982676;28;20031;-75
2024/01/21 11:56:09;;;;;;;5.83;2.17;;;;;;;2.21;50.95;101496.44;5982069;28;20545;-73
2024/01/21 11:59:08;;;;;;;5.05;2.47;;;;;;;2.19;50.99;101490.44;5975434;28;20031;-72
2024/01/21 12:02:06;;;;;;;5.80;2.60;;;;;;;2.19;51.37;101499.16;5975906;28;20028;-74
2024/01/21 12:05:01;;;;;;;7.80;2.55;;;;;;;2.21;51.94;101499.06;5987751;28;20039;-75
2024/01/21 12:07:58;;;;;;;10.37;3.17;;;;;;;2.17;52.23;101480.06;5965403;28;20422;-73
2024/01/21 12:10:53;;;;;;;5.90;2.60;;;;;;;2.16;51.79;101480.13;5961449;28;20027;-75
2024/01/21 12:13:48;;;;;;;9.10;3.13;;;;;;;2.31;52.01;101472.38;5974932;28;20495;-72
2024/01/21 12:16:49;;;;;;;9.70;2.28;;;;;;;2.49;52.11;101467.19;5982083;28;20462;-73
2024/01/21 12:19:45;;;;;;;7.30;2.88;;;;;;;2.60;52.75;101462.25;5976010;28;20718;-73
2024/01/21 12:22:42;;;;;;;7.40;3.35;;;;;;;2.71;52.28;101467.78;5988716;28;20035;-73
2024/01/21 12:25:40;;;;;;;5.20;2.25;;;;;;;2.96;52.45;101460.38;5980885;28;20380;-72
2024/01/21 12:28:35;;;;;;;7.25;2.90;;;;;;;3.08;52.32;101467.59;5980418;28;20038;-72
2024/01/21 12:31:33;;;;;;;5.40;2.73;;;;;;;3.08;51.76;101453.63;5982797;28;20099;-72
2024/01/21 12:34:30;;;;;;;6.03;2.45;;;;;;;3.04;52.87;101460.84;5974192;28;20054;-73
2024/01/21 12:37:25;;;;;;;6.97;2.75;;;;;;;3.00;52.90;101464.53;5976982;28;20039;-72
2024/01/21 12:40:20;;;;;;;6.50;2.67;;;;;;;2.84;53.98;101476.72;5974700;28;20028;-72
2024/01/21 12:43:17;;;;;;;9.70;3.33;;;;;;;2.80;54.26;101486.50;5972514;28;20395;-71
2024/01/21 12:46:13;;;;;;;9.25;3.38;;;;;;;2.71;54.68;101463.41;5970921;28;20642;-72
2024/01/21 12:49:08;;;;;;;6.43;2.90;;;;;;;2.59;55.83;101457.94;5975004;28;20074;-72
2024/01/21 12:52:03;;;;;;;8.53;3.43;;;;;;;2.55;56.14;101464.25;5986943;28;20062;-72
2024/01/21 12:54:59;;;;;;;9.25;3.60;;;;;;;2.44;56.21;101469.16;5966968;28;20027;-72
2024/01/21 12:57:55;;;;;;;7.53;3.13;;;;;;;2.42;57.58;101472.69;5968448;28;20095;-72
2024/01/21 13:00:50;;;;;;;7.75;3.13;;;;;;;2.44;57.17;101474.41;5978603;28;20046;-72
2024/01/21 13:03:46;;;;;;;8.43;2.97;;;;;;;2.44;57.25;101471.78;5976831;28;20031;-72
2024/01/21 13:06:41;;;;;;;6.97;2.83;;;;;;;2.34;58.42;101474.84;5979166;28;20028;-72
2024/01/21 13:09:36;;;;;;;9.30;4.00;;;;;;;2.31;60.12;101451.44;5981038;28;20034;-72
2024/01/21 13:12:32;;;;;;;7.80;3.30;;;;;;;2.09;62.67;101442.94;5977598;28;20041;-72
2024/01/21 13:15:27;;;;;;;15.47;3.93;;;;;;;1.91;67.54;101438.63;5979931;28;20031;-71
2024/01/21 13:18:23;;;;;;;9.13;3.50;;;;;;;1.86;67.66;101429.28;5971179;28;20483;-72
2024/01/21 13:21:18;;;;;;;7.53;3.33;;;;;;;1.99;67.47;101412.94;5982903;28;20043;-72
2024/01/21 13:24:14;;;;;;;15.20;4.80;;;;;;;2.11;66.08;101430.66;5975548;28;20031;-72
2024/01/21 13:27:16;;;;;;;7.57;3.63;;;;;;;2.18;65.62;101426.81;5973835;28;20066;-72
2024/01/21 13:33:30;;;;;;;9.13;3.63;;;;;;;2.33;66.74;101402.53;5983435;28;20043;-72
2024/01/21 13:36:25;;;;;;;9.57;4.32;;;;;;;2.33;65.51;101407.75;5980810;28;20506;-71
2024/01/21 13:39:24;;;;;;;8.27;2.90;;;;;;;2.38;66.76;101417.97;5977884;28;20089;-72
2024/01/21 13:42:20;;;;;;;8.15;3.15;;;;;;;2.40;68.17;101421.38;5973084;28;20023;-71
2024/01/21 13:45:15;;;;;;;8.10;3.80;;;;;;;2.39;69.54;101419.69;5975909;28;20031;-71
2024/01/21 13:48:10;;;;;;;6.95;3.30;;;;;;;2.47;70.24;101421.91;5973020;28;20490;-71
2024/01/21 13:51:09;;;;;;;10.52;4.55;;;;;;;2.42;70.50;101404.66;5979915;28;20074;-72
2024/01/21 13:54:05;;;;;;;9.60;3.30;;;;;;;2.47;71.56;101414.06;5985409;28;20094;-72
2024/01/21 13:57:00;;;;;;;14.07;4.77;;;;;;;2.49;72.78;101415.69;5985506;28;20043;-72
2024/01/21 13:59:56;;;;;;;8.53;3.53;;;;;;;2.48;74.51;101392.19;5989425;28;20360;-72
2024/01/21 14:02:54;;;;;;;12.77;4.10;;;;;;;2.36;75.78;101384.03;5970877;28;20054;-71
2024/01/21 14:05:50;;;;;;;6.97;2.95;;;;;;;2.37;76.92;101380.50;5981305;28;20039;-71
2024/01/21 14:08:45;;;;;;;10.03;4.10;;;;;;;2.20;78.07;101364.78;5975238;28;20074;-71
2024/01/21 14:11:41;;;;;;;8.53;3.17;;;;;;;2.37;79.93;101380.50;5981087;28;20053;-74
2024/01/21 14:14:37;;;;;;;8.98;3.80;;;;;;;2.28;81.95;101399.25;5988175;28;20301;-73
2024/01/21 14:17:34;;;;;;;11.40;4.90;;;;;;;2.24;84.18;101397.75;5986538;28;20035;-73
2024/01/21 14:20:29;;;;;;;10.00;3.25;;;;;;;2.25;86.10;101416.91;5971858;28;20074;-72
2024/01/21 14:23:24;;;;;;;11.95;4.15;;;;;;;2.26;86.82;101423.81;5981604;28;20084;-72
2024/01/21 14:26:20;;;;;;;9.80;4.03;;;;;;;2.20;87.22;101435.44;5978610;28;20030;-73
2024/01/21 14:29:34;;;;;;;11.85;4.25;;;;;;;2.22;88.74;101449.31;5982245;28;20022;-72
2024/01/21 14:32:30;;;;;;;11.20;4.30;;;;;;;2.12;89.61;101434.13;5983852;28;20474;-72
2024/01/21 14:35:28;;;;;;;11.40;4.77;;;;;;;2.20;90.93;101445.88;5982654;28;20051;-73
2024/01/21 14:38:24;;;;;;;12.57;4.47;;;;;;;2.26;91.74;101450.84;5978963;28;20067;-72
2024/01/21 14:41:19;;;;;;;8.67;4.10;;;;;;;2.23;93.88;101444.88;5981427;28;20035;-73